createdAt,value
2023-02-14T00:00:29.926Z,15.95
2023-02-14T00:02:57.210Z,16.05
2023-02-14T00:05:23.915Z,16.70
2023-02-14T00:07:50.664Z,15.43
2023-02-14T00:10:17.672Z,15.70
2023-02-14T00:12:44.444Z,17.13
2023-02-14T00:15:23.845Z,15.52
2023-02-14T00:17:56.074Z,16.35
2023-02-14T00:20:23.918Z,15.40
2023-02-14T00:22:50.887Z,13.93
2023-02-14T00:25:18.244Z,16.88
2023-02-14T00:27:44.946Z,15.70
2023-02-14T00:30:13.373Z,14.93
2023-02-14T00:32:41.613Z,13.98
2023-02-14T00:35:09.699Z,15.95
2023-02-14T00:37:36.573Z,15.85
2023-02-14T00:40:03.735Z,16.10
2023-02-14T00:42:31.206Z,14.32
2023-02-14T00:44:57.884Z,13.43
2023-02-14T00:47:24.529Z,14.45
2023-02-14T00:49:51.790Z,14.93
2023-02-14T00:52:18.598Z,14.65
2023-02-14T00:54:45.309Z,13.40
2023-02-14T00:57:13.974Z,14.10
2023-02-14T00:59:40.799Z,14.20
2023-02-14T01:02:07.592Z,12.98
2023-02-14T01:04:34.471Z,13.07
2023-02-14T01:07:01.090Z,13.25
2023-02-14T01:09:27.843Z,12.48
2023-02-14T01:11:54.546Z,13.80
2023-02-14T01:14:21.257Z,13.98
2023-02-14T01:16:49.831Z,13.60
2023-02-14T01:19:16.836Z,14.00
2023-02-14T01:21:43.731Z,14.40
2023-02-14T01:24:12.025Z,14.38
2023-02-14T01:26:39.773Z,14.15
2023-02-14T01:29:07.062Z,14.02
2023-02-14T01:31:35.486Z,14.27
2023-02-14T01:34:02.344Z,15.07
2023-02-14T01:36:35.696Z,14.05
2023-02-14T01:39:06.645Z,15.50
2023-02-14T01:41:36.240Z,14.90
2023-02-14T01:44:05.004Z,15.73
2023-02-14T01:46:37.552Z,15.98
2023-02-14T01:49:18.474Z,16.25
2023-02-14T01:51:52.853Z,16.13
2023-02-14T01:54:23.403Z,17.45
2023-02-14T01:56:56.918Z,15.48
2023-02-14T01:59:26.690Z,15.68
2023-02-14T02:01:54.183Z,16.38
2023-02-14T02:04:31.000Z,15.23
2023-02-14T02:07:03.970Z,16.52
2023-02-14T02:09:39.119Z,16.60
2023-02-14T02:12:05.826Z,16.85
2023-02-14T02:14:33.332Z,15.20
2023-02-14T02:17:25.417Z,16.42
2023-02-14T02:20:29.359Z,15.48
2023-02-14T02:23:07.048Z,14.65
2023-02-14T02:25:48.950Z,14.13
2023-02-14T02:28:26.747Z,12.90
2023-02-14T02:30:56.440Z,13.25
2023-02-14T02:33:56.859Z,12.98
2023-02-14T02:36:39.824Z,13.05
2023-02-14T02:39:15.131Z,12.65
2023-02-14T02:42:02.818Z,13.55
2023-02-14T02:44:41.882Z,13.65
2023-02-14T02:47:32.730Z,13.35
2023-02-14T02:50:45.262Z,14.00
2023-02-14T02:53:33.176Z,14.20
2023-02-14T02:56:40.816Z,14.05
2023-02-14T02:59:18.626Z,14.80
2023-02-14T03:02:05.582Z,16.70
2023-02-14T03:04:53.207Z,14.25
2023-02-14T03:07:36.751Z,15.02
2023-02-14T03:10:13.462Z,14.75
2023-02-14T03:13:01.018Z,14.13
2023-02-14T03:15:27.663Z,13.30
2023-02-14T03:18:16.121Z,14.30
2023-02-14T03:21:21.440Z,14.00
2023-02-14T03:23:57.938Z,14.13
2023-02-14T03:26:37.622Z,14.75
2023-02-14T03:29:22.402Z,15.02
2023-02-14T03:32:02.514Z,14.50
2023-02-14T03:34:33.093Z,14.30
2023-02-14T03:37:02.886Z,15.57
2023-02-14T03:39:59.533Z,13.63
2023-02-14T03:42:32.570Z,12.98
2023-02-14T03:45:02.370Z,13.35
2023-02-14T03:47:32.568Z,12.40
2023-02-14T03:50:31.789Z,12.25
2023-02-14T03:53:00.085Z,14.05
2023-02-14T03:56:02.481Z,12.73
2023-02-14T03:58:37.532Z,13.93
2023-02-14T04:01:15.490Z,13.52
2023-02-14T04:03:43.412Z,12.07
2023-02-14T04:06:10.619Z,13.70
2023-02-14T04:08:37.450Z,12.23
2023-02-14T04:11:05.596Z,12.98
2023-02-14T04:13:32.648Z,13.20
2023-02-14T04:15:59.330Z,12.63
2023-02-14T04:18:44.770Z,12.57
2023-02-14T04:21:11.626Z,11.25
2023-02-14T04:23:38.266Z,12.55
2023-02-14T04:26:05.201Z,11.77
2023-02-14T04:28:32.625Z,10.35
2023-02-14T04:31:04.694Z,11.05
2023-02-14T04:33:31.382Z,11.88
2023-02-14T04:35:58.035Z,11.00
2023-02-14T04:38:24.810Z,11.25
2023-02-14T04:40:51.959Z,11.80
2023-02-14T04:43:19.257Z,11.95
2023-02-14T04:45:47.218Z,12.35
2023-02-14T04:48:13.945Z,11.85
2023-02-14T04:50:40.610Z,11.50
2023-02-14T04:53:07.272Z,12.27
2023-02-14T04:55:33.922Z,12.23
2023-02-14T04:58:00.665Z,11.80
2023-02-14T05:00:27.266Z,13.57
2023-02-14T05:02:53.975Z,14.18
2023-02-14T05:05:20.749Z,14.75
2023-02-14T05:07:47.806Z,12.30
2023-02-14T05:10:15.064Z,12.68
2023-02-14T05:12:42.074Z,13.52
2023-02-14T05:15:09.613Z,12.20
2023-02-14T05:17:36.350Z,14.10
2023-02-14T05:20:05.897Z,13.45
2023-02-14T05:22:32.639Z,11.88
2023-02-14T05:24:59.175Z,14.32
2023-02-14T05:27:25.975Z,12.75
2023-02-14T05:29:52.657Z,15.15
2023-02-14T05:32:19.299Z,13.55
2023-02-14T05:34:45.998Z,14.23
2023-02-14T05:37:12.649Z,13.25
2023-02-14T05:39:39.260Z,13.48
2023-02-14T05:42:06.050Z,14.50
2023-02-14T05:44:32.674Z,13.27
2023-02-14T05:46:59.460Z,12.68
2023-02-14T05:49:26.097Z,12.43
2023-02-14T05:51:52.799Z,13.35
2023-02-14T05:54:19.504Z,12.25
2023-02-14T05:56:46.205Z,13.18
2023-02-14T05:59:14.229Z,12.10
2023-02-14T06:01:41.036Z,11.73
2023-02-14T06:04:07.745Z,11.95
2023-02-14T06:06:36.596Z,10.77
2023-02-14T06:09:03.523Z,11.77
2023-02-14T06:11:30.368Z,10.68
2023-02-14T06:13:57.814Z,12.13
2023-02-14T06:16:24.508Z,11.68
2023-02-14T06:18:51.158Z,10.75
2023-02-14T06:21:17.914Z,11.68
2023-02-14T06:23:44.511Z,11.80
2023-02-14T06:26:11.215Z,11.55
2023-02-14T06:28:37.818Z,11.88
2023-02-14T06:31:05.080Z,11.25
2023-02-14T06:33:31.818Z,11.63
2023-02-14T06:35:58.484Z,12.05
2023-02-14T06:38:25.141Z,10.27
2023-02-14T06:40:51.766Z,11.35
2023-02-14T06:43:18.341Z,11.23
2023-02-14T06:45:46.608Z,11.60
2023-02-14T06:48:13.292Z,10.20
2023-02-14T06:50:39.905Z,10.77
2023-02-14T06:53:06.557Z,11.13
2023-02-14T06:55:33.269Z,10.18
2023-02-14T06:57:59.894Z,11.23
2023-02-14T07:00:26.579Z,12.98
2023-02-14T07:02:53.212Z,12.50
2023-02-14T07:05:20.009Z,12.85
2023-02-14T07:07:46.692Z,12.18
2023-02-14T07:10:13.824Z,11.32
2023-02-14T07:12:40.600Z,12.52
2023-02-14T07:15:09.082Z,12.65
2023-02-14T07:17:36.026Z,13.15
2023-02-14T07:20:03.305Z,12.88
2023-02-14T07:22:30.533Z,13.02
2023-02-14T07:24:57.259Z,13.13
2023-02-14T07:27:23.861Z,13.50
2023-02-14T07:29:50.588Z,12.13
2023-02-14T07:32:17.605Z,12.80
2023-02-14T07:34:44.340Z,13.88
2023-02-14T07:37:11.449Z,11.80
2023-02-14T07:39:38.080Z,12.77
2023-02-14T07:42:04.797Z,14.43
2023-02-14T07:44:32.295Z,14.10
2023-02-14T07:46:59.046Z,14.57
2023-02-14T07:49:25.872Z,13.93
2023-02-14T07:51:52.507Z,14.15
2023-02-14T07:54:20.362Z,14.70
2023-02-14T07:56:47.054Z,14.48
2023-02-14T07:59:13.944Z,15.57
2023-02-14T08:01:40.684Z,13.57
2023-02-14T08:04:07.992Z,14.77
2023-02-14T08:06:35.121Z,13.57
2023-02-14T08:09:01.831Z,15.35
2023-02-14T08:11:46.875Z,14.27
2023-02-14T08:14:13.645Z,14.97
2023-02-14T08:16:40.236Z,14.32
2023-02-14T08:19:06.906Z,14.45
2023-02-14T08:21:33.652Z,13.55
2023-02-14T08:24:00.787Z,13.82
2023-02-14T08:26:27.423Z,19.42
2023-02-14T08:28:54.395Z,20.50
2023-02-14T08:31:35.037Z,15.77
2023-02-14T08:34:02.974Z,15.80
2023-02-14T08:36:29.595Z,13.80
2023-02-14T08:38:57.662Z,13.75
2023-02-14T08:41:25.013Z,15.07
2023-02-14T08:43:51.908Z,14.52
2023-02-14T08:46:18.619Z,14.30
2023-02-14T08:48:45.706Z,13.75
2023-02-14T08:51:14.427Z,13.85
2023-02-14T08:53:41.844Z,15.30
2023-02-14T08:56:14.842Z,15.55
2023-02-14T08:58:41.650Z,15.55
2023-02-14T09:01:13.858Z,15.13
2023-02-14T09:03:40.780Z,15.82
2023-02-14T09:06:10.014Z,14.55
2023-02-14T09:08:38.176Z,14.25
2023-02-14T09:11:16.380Z,15.10
2023-02-14T09:13:43.627Z,13.65
2023-02-14T09:16:11.972Z,12.77
2023-02-14T09:18:40.209Z,14.65
2023-02-14T09:21:09.915Z,14.82
2023-02-14T09:23:36.995Z,14.68
2023-02-14T09:26:06.186Z,14.73
2023-02-14T09:28:33.164Z,11.60
2023-02-14T09:31:12.229Z,13.02
2023-02-14T09:33:39.366Z,12.48
2023-02-14T09:36:18.842Z,13.00
2023-02-14T09:38:46.003Z,13.40
2023-02-14T09:41:28.592Z,12.90
2023-02-14T09:44:07.691Z,13.98
2023-02-14T09:46:45.469Z,14.38
2023-02-14T09:49:16.144Z,14.07
2023-02-14T09:51:49.338Z,12.35
2023-02-14T09:54:27.537Z,14.07
2023-02-14T09:57:00.549Z,13.70
2023-02-14T10:00:03.409Z,13.88
2023-02-14T10:02:48.919Z,14.02
2023-02-14T10:05:23.659Z,14.23
2023-02-14T10:08:08.666Z,13.17
2023-02-14T10:10:43.977Z,13.80
2023-02-14T10:13:48.497Z,14.75
2023-02-14T10:16:33.824Z,14.20
2023-02-14T10:19:03.078Z,14.15
2023-02-14T10:21:39.941Z,14.65
2023-02-14T10:24:49.768Z,14.48
2023-02-14T10:27:34.908Z,15.00
2023-02-14T10:30:03.472Z,14.50
2023-02-14T10:32:47.595Z,13.85
2023-02-14T10:35:31.348Z,12.25
2023-02-14T10:38:04.069Z,14.18
2023-02-14T10:40:45.084Z,13.10
2023-02-14T10:43:20.795Z,12.75
2023-02-14T10:46:13.662Z,12.20
2023-02-14T10:48:59.614Z,12.18
2023-02-14T10:51:33.489Z,12.48
2023-02-14T10:54:25.825Z,12.30
2023-02-14T10:57:04.411Z,10.82
2023-02-14T10:59:40.423Z,10.93
2023-02-14T11:02:13.738Z,10.98
2023-02-14T11:04:42.143Z,10.95
2023-02-14T11:07:14.547Z,10.82
2023-02-14T11:09:41.346Z,10.93
2023-02-14T11:12:08.766Z,10.35
2023-02-14T11:14:38.448Z,10.05
2023-02-14T11:17:28.708Z,10.35
2023-02-14T11:20:06.401Z,11.15
2023-02-14T11:22:35.345Z,11.25
2023-02-14T11:25:27.158Z,11.35
2023-02-14T11:28:05.859Z,10.43
2023-02-14T11:30:41.143Z,11.80
2023-02-14T11:33:13.834Z,10.52
2023-02-14T11:35:40.751Z,10.10
2023-02-14T11:38:30.492Z,12.68
2023-02-14T11:40:59.723Z,13.07
2023-02-14T11:43:37.095Z,12.52
2023-02-14T11:46:07.901Z,10.57
2023-02-14T11:48:38.551Z,11.60
2023-02-14T11:51:16.622Z,10.65
2023-02-14T11:53:47.864Z,10.98
2023-02-14T11:56:17.551Z,12.23
2023-02-14T11:59:03.775Z,11.50
2023-02-14T12:01:33.848Z,9.80
2023-02-14T12:04:07.511Z,11.75
2023-02-14T12:06:36.259Z,12.43
2023-02-14T12:09:21.950Z,11.68
2023-02-14T12:12:00.721Z,11.77
2023-02-14T12:14:36.656Z,11.30
2023-02-14T12:17:23.364Z,10.70
2023-02-14T12:19:52.870Z,10.27
2023-02-14T12:22:28.408Z,11.55
2023-02-14T12:25:21.394Z,11.70
2023-02-14T12:27:56.918Z,10.15
2023-02-14T12:32:54.593Z,9.23
2023-02-14T12:35:30.112Z,9.18
2023-02-14T12:41:06.396Z,9.75
2023-02-14T12:44:05.157Z,8.77
2023-02-14T12:46:37.872Z,9.85
2023-02-14T12:49:26.310Z,9.05
2023-02-14T12:52:45.579Z,8.70
2023-02-14T12:55:12.311Z,7.22
2023-02-14T12:58:00.950Z,7.90
2023-02-14T13:00:42.861Z,8.57
2023-02-14T13:03:15.424Z,7.75
2023-02-14T13:05:51.074Z,8.68
2023-02-14T13:11:05.843Z,8.43
2023-02-14T13:13:50.975Z,8.38
2023-02-14T13:16:31.565Z,7.70
2023-02-14T13:19:12.091Z,7.68
2023-02-14T13:21:40.820Z,8.10
2023-02-14T13:24:29.510Z,8.00
2023-02-14T13:27:00.804Z,7.80
2023-02-14T13:29:43.110Z,8.23
2023-02-14T13:32:14.168Z,7.65
2023-02-14T13:34:47.110Z,8.63
2023-02-14T13:37:17.796Z,8.88
2023-02-14T13:40:03.250Z,9.32
2023-02-14T13:42:49.911Z,8.63
2023-02-14T13:45:38.201Z,7.85
2023-02-14T13:48:20.930Z,8.00
2023-02-14T13:51:05.874Z,8.75
2023-02-14T13:53:32.588Z,7.60
2023-02-14T13:55:59.786Z,9.90
2023-02-14T13:58:27.470Z,9.82
2023-02-14T14:00:55.150Z,7.25
2023-02-14T14:03:27.784Z,6.35
2023-02-14T14:06:08.956Z,7.15
2023-02-14T14:08:38.584Z,6.38
2023-02-14T14:11:11.948Z,6.68
2023-02-14T14:13:41.365Z,9.23
2023-02-14T14:16:27.880Z,8.20
2023-02-14T14:19:18.451Z,7.30
2023-02-14T14:21:59.897Z,6.60
2023-02-14T14:24:30.199Z,6.38
2023-02-14T14:27:07.032Z,7.05
2023-02-14T14:29:55.920Z,6.30
2023-02-14T14:32:30.407Z,5.60
2023-02-14T14:34:58.637Z,7.47
2023-02-14T14:37:28.528Z,6.97
2023-02-14T14:39:58.281Z,5.53
2023-02-14T14:42:32.290Z,5.35
2023-02-14T14:45:07.016Z,5.40
2023-02-14T14:47:45.217Z,4.97
2023-02-14T14:50:22.998Z,5.32
2023-02-14T14:52:53.469Z,4.35
2023-02-14T14:55:26.534Z,4.35
2023-02-14T14:58:03.817Z,5.32
2023-02-14T15:00:38.764Z,6.07
2023-02-14T15:03:07.193Z,5.88
2023-02-14T15:05:38.252Z,5.38
2023-02-14T15:08:32.925Z,6.68
2023-02-14T15:11:12.976Z,7.13
2023-02-14T15:13:50.838Z,6.88
2023-02-14T15:16:38.305Z,5.97
2023-02-14T15:19:37.324Z,6.50
2023-02-14T15:22:18.300Z,7.03
2023-02-14T15:24:45.519Z,6.95
2023-02-14T15:27:24.013Z,8.60
2023-02-14T15:30:02.532Z,7.65
2023-02-14T15:32:32.124Z,7.85
2023-02-14T15:35:03.181Z,6.80
2023-02-14T15:37:30.390Z,5.97
2023-02-14T15:39:57.475Z,6.50
2023-02-14T15:42:32.441Z,5.85
2023-02-14T15:45:24.385Z,6.18
2023-02-14T15:47:53.947Z,6.30
2023-02-14T15:50:25.977Z,5.75
2023-02-14T15:52:56.280Z,5.45
2023-02-14T15:55:26.704Z,6.00
2023-02-14T15:58:20.930Z,6.43
2023-02-14T16:00:49.085Z,6.22
2023-02-14T16:03:22.595Z,5.85
2023-02-14T16:05:50.809Z,5.97
2023-02-14T16:08:31.206Z,5.05
2023-02-14T16:11:32.085Z,4.40
2023-02-14T16:13:59.126Z,3.40
2023-02-14T16:16:25.882Z,3.63
2023-02-14T16:18:56.560Z,3.17
2023-02-14T16:21:25.112Z,3.70
2023-02-14T16:24:04.043Z,4.32
2023-02-14T16:26:31.430Z,4.25
2023-02-14T16:28:58.170Z,4.05
2023-02-14T16:31:25.389Z,3.78
2023-02-14T16:33:52.137Z,4.50
2023-02-14T16:36:24.657Z,3.70
2023-02-14T16:38:51.686Z,3.13
2023-02-14T16:41:24.639Z,3.78
2023-02-14T16:43:51.601Z,3.65
2023-02-14T16:46:21.905Z,3.33
2023-02-14T16:48:52.680Z,3.50
2023-02-14T16:51:22.555Z,3.50
2023-02-14T16:53:50.109Z,4.30
2023-02-14T16:56:19.977Z,3.22
2023-02-14T16:58:47.550Z,3.50
2023-02-14T17:01:14.406Z,3.95
2023-02-14T17:03:42.667Z,3.30
2023-02-14T17:06:16.963Z,4.22
2023-02-14T17:08:44.182Z,4.28
2023-02-14T17:11:11.116Z,4.60
2023-02-14T17:13:42.241Z,3.90
2023-02-14T17:16:12.664Z,4.55
2023-02-14T17:18:42.090Z,3.88
2023-02-14T17:21:09.404Z,4.65
2023-02-14T17:23:36.213Z,4.00
2023-02-14T17:26:02.967Z,5.70
2023-02-14T17:28:29.957Z,8.20
2023-02-14T17:30:58.309Z,5.40
2023-02-14T17:33:26.951Z,5.80
2023-02-14T17:35:53.661Z,5.30
2023-02-14T17:38:21.514Z,5.72
2023-02-14T17:40:48.115Z,6.03
2023-02-14T17:43:15.019Z,8.43
2023-02-14T17:45:41.743Z,5.93
2023-02-14T17:48:11.339Z,4.82
2023-02-14T17:50:38.384Z,5.93
2023-02-14T17:53:05.254Z,5.50
2023-02-14T17:55:31.978Z,6.60
2023-02-14T17:57:58.652Z,7.32
2023-02-14T18:00:25.598Z,5.95
2023-02-14T18:02:52.281Z,5.25
2023-02-14T18:05:18.958Z,5.32
2023-02-14T18:07:45.887Z,5.03
2023-02-14T18:10:12.679Z,5.53
2023-02-14T18:12:39.375Z,5.88
2023-02-14T18:15:06.396Z,5.85
2023-02-14T18:17:33.087Z,5.38
2023-02-14T18:20:00.091Z,4.53
2023-02-14T18:22:28.486Z,4.88
2023-02-14T18:24:58.487Z,4.93
2023-02-14T18:27:26.034Z,4.50
2023-02-14T18:29:52.692Z,5.30
2023-02-14T18:32:19.417Z,5.90
2023-02-14T18:34:46.215Z,5.20
2023-02-14T18:37:14.043Z,4.95
2023-02-14T18:39:40.972Z,5.57
2023-02-14T18:42:07.793Z,5.78
2023-02-14T18:44:36.656Z,7.13
2023-02-14T18:47:03.400Z,7.50
2023-02-14T18:49:30.188Z,7.53
2023-02-14T18:51:58.796Z,9.35
2023-02-14T18:54:25.515Z,7.00
2023-02-14T18:56:52.233Z,7.22
2023-02-14T18:59:18.983Z,7.25
2023-02-14T19:01:46.140Z,6.82
2023-02-14T19:04:13.778Z,7.78
2023-02-14T19:06:41.944Z,8.90
2023-02-14T19:09:11.174Z,8.55
2023-02-14T19:11:38.588Z,9.63
2023-02-14T19:14:10.132Z,9.00
2023-02-14T19:16:50.424Z,9.27
2023-02-14T19:19:17.812Z,7.82
2023-02-14T19:21:44.505Z,7.68
2023-02-14T19:24:11.897Z,8.50
2023-02-14T19:26:42.092Z,8.27
2023-02-14T19:29:14.364Z,6.78
2023-02-14T19:31:44.334Z,6.82
2023-02-14T19:34:17.197Z,6.43
2023-02-14T19:36:44.102Z,6.95
2023-02-14T19:39:11.515Z,6.32
2023-02-14T19:41:39.789Z,6.38
2023-02-14T19:44:08.482Z,6.60
2023-02-14T19:46:35.471Z,7.03
2023-02-14T19:49:02.164Z,6.35
2023-02-14T19:51:35.927Z,5.82
2023-02-14T19:54:05.633Z,6.78
2023-02-14T19:56:34.792Z,6.72
2023-02-14T19:59:07.708Z,7.18
2023-02-14T20:01:44.442Z,6.07
2023-02-14T20:04:15.004Z,5.70
2023-02-14T20:06:43.063Z,6.60
2023-02-14T20:09:09.846Z,7.45
2023-02-14T20:11:40.109Z,7.68
2023-02-14T20:14:08.603Z,7.30
2023-02-14T20:16:37.779Z,7.93
2023-02-14T20:19:08.279Z,7.53
2023-02-14T20:21:35.569Z,6.53
2023-02-14T20:24:03.887Z,7.50
2023-02-14T20:26:32.788Z,7.13
2023-02-14T20:29:03.792Z,6.57
2023-02-14T20:31:32.698Z,6.43
2023-02-14T20:34:00.312Z,7.13
2023-02-14T20:36:27.969Z,7.03
2023-02-14T20:38:56.240Z,7.63
2023-02-14T20:41:23.862Z,7.55
2023-02-14T20:43:50.689Z,7.35
2023-02-14T20:46:18.276Z,8.70
2023-02-14T20:48:45.012Z,7.90
2023-02-14T20:51:17.242Z,7.90
2023-02-14T20:53:45.542Z,8.88
2023-02-14T20:56:13.167Z,8.95
2023-02-14T20:58:41.027Z,8.60
2023-02-14T21:01:10.626Z,9.07
2023-02-14T21:03:37.722Z,9.15
2023-02-14T21:06:05.842Z,7.00
2023-02-14T21:08:33.423Z,7.78
2023-02-14T21:11:00.440Z,6.30
2023-02-14T21:13:27.479Z,6.20
2023-02-14T21:15:54.353Z,6.53
2023-02-14T21:18:21.606Z,5.47
2023-02-14T21:20:48.516Z,5.72
2023-02-14T21:23:15.335Z,5.97
2023-02-14T21:25:42.807Z,5.63
2023-02-14T21:28:09.501Z,5.60
2023-02-14T21:30:36.246Z,6.60
2023-02-14T21:33:04.263Z,5.85
2023-02-14T21:35:31.065Z,6.13
2023-02-14T21:37:57.772Z,6.35
2023-02-14T21:40:24.744Z,6.63
2023-02-14T21:42:51.736Z,6.53
2023-02-14T21:45:37.234Z,5.85
2023-02-14T21:48:22.477Z,6.22
2023-02-14T21:50:49.219Z,6.55
2023-02-14T21:53:15.869Z,6.78
2023-02-14T21:55:42.931Z,7.50
2023-02-14T21:58:09.599Z,8.57
2023-02-14T22:00:36.359Z,8.13
2023-02-14T22:03:03.031Z,7.63
2023-02-14T22:05:29.759Z,8.15
2023-02-14T22:07:56.379Z,7.60
2023-02-14T22:10:23.184Z,7.75
2023-02-14T22:12:49.923Z,7.07
2023-02-14T22:15:16.559Z,6.95
2023-02-14T22:17:43.473Z,6.22
2023-02-14T22:20:10.465Z,6.28
2023-02-14T22:22:37.146Z,7.32
2023-02-14T22:25:03.955Z,7.63
2023-02-14T22:27:30.869Z,6.75
2023-02-14T22:29:57.634Z,6.63
2023-02-14T22:32:24.384Z,7.00
2023-02-14T22:34:51.165Z,6.53
2023-02-14T22:37:17.770Z,7.18
2023-02-14T22:39:44.391Z,5.97
2023-02-14T22:42:11.080Z,6.60
2023-02-14T22:44:37.934Z,6.65
2023-02-14T22:47:04.617Z,5.90
2023-02-14T22:49:31.412Z,5.38
2023-02-14T22:51:58.104Z,5.53
2023-02-14T22:54:24.752Z,5.75
2023-02-14T22:56:51.521Z,4.07
2023-02-14T22:59:24.218Z,4.85
2023-02-14T23:01:52.896Z,3.78
2023-02-14T23:04:22.355Z,3.53
2023-02-14T23:06:49.296Z,4.15
2023-02-14T23:09:16.490Z,5.57
2023-02-14T23:11:45.004Z,5.15
2023-02-14T23:14:35.104Z,5.45
2023-02-14T23:17:21.806Z,4.72
2023-02-14T23:20:07.039Z,4.85
2023-02-14T23:22:38.825Z,5.60
2023-02-14T23:25:08.184Z,4.90
2023-02-14T23:27:40.872Z,5.18
2023-02-14T23:30:11.170Z,5.35
2023-02-14T23:32:37.928Z,5.82
2023-02-14T23:35:05.539Z,5.43
2023-02-14T23:37:32.268Z,5.80
2023-02-14T23:39:58.916Z,5.63
2023-02-14T23:42:25.608Z,5.93
2023-02-14T23:44:52.443Z,5.57
2023-02-14T23:47:19.121Z,5.75
2023-02-14T23:49:46.057Z,6.28
2023-02-14T23:52:13.728Z,5.55
2023-02-14T23:54:40.578Z,5.43
2023-02-14T23:57:08.845Z,4.88
2023-02-14T23:59:35.718Z,4.28
